Parker, Idaho
Current Conditions -  °F | °C
As of 9:08 AM on Wednesday 26 Nov 2014 (Local Time) from KRXE Reporting Station
Broken Clouds Broken Clouds  
Wind Chill: 33°   Ceiling: 1500
Heat Index: 39°   Visibility: 10mi
Dew Point: 35°   Wind: 9mph
Humidity: 86%   Direction: 220°SW
Pressure: 30.25"   Gusts: NA
Location:  43.96°N, 111.76°W
Report Text: KRXE 261608Z AUTO 22008KT 10SM BKN015 04/02 A3025 RMK AO2 T00390017
Loading
Personal Weather Stations






























Interactive Weather Map New forecast layout! Learn more

10-Day Weather Forecast

Advertisements
Track Severe Weather on mobile